»·PEaware :: N512PC KAVX-KSAN

N512PC :: KAVX-KSAN

FLIGHT INFORMATION

Flight Status: Arrived
Operator: Privately registered:
United States
More flights under this callsign
Pilot: Jacob V. (20481)
Aircraft: BEECH AIRCRAFT BARON
(BE58)
More flights by this aircraft type
Origin: KAVX Catalina
United States
Destination: KSAN San Diego Intl-Lindbergh
United States
More flights between these airports :: More routes between these airports
Route: SXC V208 OCN V23 MZB
File this flight plan on PilotEdge
Remarks:
Altitude:
(Current/Filed)
5,000ft
Speed:
(Current/Filed)
0kts
Departed: 08-Oct-18 07:15 PM
Arrived: 08-Oct-18 08:05 PM
Distance/Time
Traveled:
74nm/0:50
Distance/Time
To Go:
Arrived

Flight Plot

Page will automatically refresh every two minutes.


Map Options




Map Legend


Flown Route
Filed Route
Departure Airport
Arrival Airport
Navaid (VOR, NDB)
Fix

Horizontal Profiles

Position Reports

Time Latitude Longitude Heading Altitude Ground
Speed
08-Oct-18 19:08 33.403293 -118.415954 46 1551ft 0kts
08-Oct-18 19:09 33.403293 -118.415954 46 1551ft 0kts
08-Oct-18 19:10 33.403293 -118.415954 46 1551ft 0kts
08-Oct-18 19:11 33.403293 -118.415954 46 1551ft 0kts
08-Oct-18 19:12 33.403719 -118.415235 48 1546ft 9kts
08-Oct-18 19:13 33.405018 -118.414926 30 1541ft 8kts
08-Oct-18 19:14 33.407197 -118.411306 22 1498ft 0kts
08-Oct-18 19:15 33.407273 -118.411324 338 1498ft 3kts
08-Oct-18 19:16 33.407316 -118.411862 237 1502ft 10kts
08-Oct-18 19:17 33.394527 -118.435167 235 1992ft 115kts
08-Oct-18 19:18 33.375654 -118.467184 236 3175ft 126kts
08-Oct-18 19:19 33.354391 -118.501895 231 4085ft 138kts
08-Oct-18 19:20 33.330175 -118.536821 231 4966ft 151kts
08-Oct-18 19:21 33.300867 -118.579404 231 4977ft 179kts
08-Oct-18 19:22 33.270165 -118.623502 196 4963ft 183kts
08-Oct-18 19:23 33.258844 -118.584704 31 4975ft 187kts
08-Oct-18 19:24 33.302647 -118.579127 54 4975ft 188kts
08-Oct-18 19:25 33.320284 -118.520291 71 4978ft 200kts
08-Oct-18 19:26 33.337706 -118.457420 71 4976ft 204kts
08-Oct-18 19:27 33.354970 -118.395111 72 4977ft 202kts
08-Oct-18 19:28 33.359935 -118.329905 100 4977ft 204kts
08-Oct-18 19:29 33.349893 -118.263037 101 4973ft 204kts
08-Oct-18 19:30 33.339464 -118.196398 101 4969ft 204kts
08-Oct-18 19:31 33.331348 -118.129451 97 5004ft 204kts
08-Oct-18 19:32 33.323022 -118.062238 99 5002ft 204kts
08-Oct-18 19:33 33.313683 -117.995140 100 4996ft 205kts
08-Oct-18 19:34 33.304073 -117.928355 100 4989ft 205kts
08-Oct-18 19:35 33.294313 -117.861310 100 4981ft 205kts
08-Oct-18 19:36 33.289451 -117.793832 94 4978ft 205kts
08-Oct-18 19:37 33.283083 -117.726560 98 4980ft 204kts
08-Oct-18 19:38 33.274532 -117.659511 99 4983ft 203kts
08-Oct-18 19:39 33.265416 -117.592931 99 4986ft 203kts
08-Oct-18 19:40 33.256250 -117.527525 99 4986ft 203kts
08-Oct-18 19:41 33.247158 -117.463234 99 4986ft 203kts
08-Oct-18 19:42 33.217890 -117.415697 153 4987ft 201kts
08-Oct-18 19:43 33.169010 -117.386302 154 4986ft 201kts
08-Oct-18 19:44 33.117132 -117.361095 158 4977ft 201kts
08-Oct-18 19:45 33.064643 -117.338850 162 4977ft 201kts
08-Oct-18 19:46 33.012085 -117.317618 161 4977ft 198kts
08-Oct-18 19:47 32.959813 -117.298082 162 4979ft 197kts
08-Oct-18 19:48 32.908319 -117.277231 161 4979ft 190kts
08-Oct-18 19:49 32.859584 -117.257299 162 4985ft 184kts
08-Oct-18 19:50 32.835498 -117.208359 112 4989ft 180kts
08-Oct-18 19:51 32.817523 -117.154013 112 4992ft 181kts
08-Oct-18 19:52 32.800040 -117.100785 112 4994ft 181kts
08-Oct-18 19:53 32.786085 -117.046380 101 4993ft 182kts
08-Oct-18 19:54 32.777457 -116.989897 101 4991ft 180kts
08-Oct-18 19:55 32.768981 -116.933234 101 4989ft 179kts
08-Oct-18 19:56 32.760450 -116.875063 101 4988ft 178kts
08-Oct-18 19:57 32.729121 -116.844806 190 4560ft 183kts
08-Oct-18 19:58 32.681845 -116.862118 229 3998ft 173kts
08-Oct-18 19:59 32.666503 -116.911238 281 3994ft 152kts
08-Oct-18 20:00 32.677287 -116.958553 285 3809ft 153kts
08-Oct-18 20:01 32.687392 -117.000230 286 3367ft 135kts
08-Oct-18 20:02 32.697427 -117.041241 286 2697ft 135kts
08-Oct-18 20:03 32.707641 -117.083103 286 2069ft 134kts
08-Oct-18 20:04 32.716166 -117.119989 285 1379ft 115kts
08-Oct-18 20:05 32.724380 -117.152512 286 622ft 105kts
08-Oct-18 20:06 32.732506 -117.185407 286 15ft 91kts
08-Oct-18 20:07 32.734661 -117.190752 36 16ft 0kts
08-Oct-18 20:08 32.733776 -117.185828 105 16ft 25kts
08-Oct-18 20:09 32.732008 -117.178479 106 20ft 19kts
08-Oct-18 20:10 32.732833 -117.178913 275 20ft 6kts
08-Oct-18 20:11 32.732831 -117.178947 261 20ft 0kts

Navigation Log

Ident Type
Flight plan parsing failed, navigation log unavailable